createdAt,value
2019-01-23T00:01:58.927Z,25.53
2019-01-23T00:04:29.611Z,23.87
2019-01-23T00:06:59.656Z,24.83
2019-01-23T00:09:30.406Z,25.53
2019-01-23T00:12:01.122Z,24.60
2019-01-23T00:14:31.776Z,24.47
2019-01-23T00:17:02.487Z,23.07
2019-01-23T00:19:33.209Z,24.37
2019-01-23T00:22:03.852Z,23.43
2019-01-23T00:24:34.537Z,26.00
2019-01-23T00:27:05.168Z,23.90
2019-01-23T00:29:35.822Z,25.50
2019-01-23T00:32:06.453Z,24.23
2019-01-23T00:34:37.097Z,25.70
2019-01-23T00:37:07.740Z,24.40
2019-01-23T00:39:38.461Z,23.70
2019-01-23T00:42:09.174Z,25.67
2019-01-23T00:44:39.834Z,24.23
2019-01-23T00:47:10.538Z,24.47
2019-01-23T00:49:41.268Z,24.80
2019-01-23T00:52:11.977Z,26.37
2019-01-23T00:54:42.633Z,24.83
2019-01-23T00:57:13.286Z,23.50
2019-01-23T00:59:44.006Z,24.37
2019-01-23T01:02:14.645Z,24.37
2019-01-23T01:04:45.308Z,24.87
2019-01-23T01:07:16.116Z,23.97
2019-01-23T01:09:46.768Z,23.10
2019-01-23T01:12:17.409Z,25.87
2019-01-23T01:14:48.081Z,23.13
2019-01-23T01:17:18.716Z,23.07
2019-01-23T01:19:49.460Z,24.40
2019-01-23T01:22:20.101Z,26.07
2019-01-23T01:24:50.824Z,25.03
2019-01-23T01:27:21.461Z,24.27
2019-01-23T01:29:52.232Z,20.57
2019-01-23T01:32:22.939Z,21.77
2019-01-23T01:34:53.584Z,23.90
2019-01-23T01:37:24.171Z,23.37
2019-01-23T01:39:54.908Z,26.40
2019-01-23T01:42:25.556Z,25.93
2019-01-23T01:44:55.639Z,23.93
2019-01-23T01:47:26.158Z,25.90
2019-01-23T01:49:56.897Z,26.27
2019-01-23T01:52:27.544Z,22.73
2019-01-23T01:54:58.281Z,23.53
2019-01-23T01:57:29.040Z,22.23
2019-01-23T01:59:59.652Z,23.20
2019-01-23T02:02:30.298Z,24.87
2019-01-23T02:05:01.039Z,24.20
2019-01-23T02:07:31.750Z,24.33
2019-01-23T02:10:02.403Z,21.97
2019-01-23T02:12:34.193Z,23.50
2019-01-23T02:15:06.633Z,23.07
2019-01-23T02:17:37.265Z,23.30
2019-01-23T02:20:14.249Z,21.60
2019-01-23T02:22:44.891Z,22.70
2019-01-23T02:25:15.625Z,19.77
2019-01-23T02:27:47.034Z,22.27
2019-01-23T02:30:19.681Z,21.50
2019-01-23T02:32:50.391Z,21.20
2019-01-23T02:35:21.126Z,21.73
2019-01-23T02:37:51.873Z,23.53
2019-01-23T02:40:23.943Z,22.97
2019-01-23T02:42:54.857Z,23.27
2019-01-23T02:45:25.513Z,24.63
2019-01-23T02:47:56.171Z,25.00
2019-01-23T02:50:26.918Z,27.27
2019-01-23T02:52:57.564Z,25.93
2019-01-23T02:55:28.311Z,25.33
2019-01-23T02:57:59.045Z,25.80
2019-01-23T03:00:29.690Z,23.93
2019-01-23T03:03:00.412Z,22.77
2019-01-23T03:05:31.065Z,25.93
2019-01-23T03:08:01.721Z,24.27
2019-01-23T03:10:32.438Z,26.00
2019-01-23T03:13:03.174Z,25.00
2019-01-23T03:15:33.812Z,23.90
2019-01-23T03:18:04.470Z,24.90
2019-01-23T03:20:35.202Z,25.60
2019-01-23T03:23:05.947Z,22.27
2019-01-23T03:25:36.666Z,25.20
2019-01-23T03:28:07.426Z,24.17
2019-01-23T03:30:38.146Z,24.90
2019-01-23T03:33:08.869Z,24.17
2019-01-23T03:35:39.589Z,24.57
2019-01-23T03:38:10.314Z,25.37
2019-01-23T03:40:41.026Z,23.97
2019-01-23T03:43:11.761Z,24.27
2019-01-23T03:45:42.405Z,25.43
2019-01-23T03:48:13.141Z,27.40
2019-01-23T03:50:43.777Z,24.37
2019-01-23T03:53:14.426Z,25.37
2019-01-23T03:55:45.137Z,23.80
2019-01-23T03:58:15.798Z,24.33
2019-01-23T04:00:46.513Z,27.40
2019-01-23T04:03:17.252Z,24.90
2019-01-23T04:05:47.918Z,24.47
2019-01-23T04:08:18.651Z,24.27
2019-01-23T04:10:49.358Z,26.60
2019-01-23T04:13:20.091Z,26.23
2019-01-23T04:15:50.722Z,27.13
2019-01-23T04:18:21.455Z,26.10
2019-01-23T04:20:52.093Z,26.43
2019-01-23T04:23:22.763Z,25.47
2019-01-23T04:25:53.475Z,24.60
2019-01-23T04:28:24.209Z,26.30
2019-01-23T04:30:54.854Z,23.40
2019-01-23T04:33:25.518Z,25.73
2019-01-23T04:35:56.250Z,24.40
2019-01-23T04:38:26.917Z,23.20
2019-01-23T04:40:57.619Z,24.80
2019-01-23T04:43:28.270Z,25.57
2019-01-23T04:45:58.907Z,25.20
2019-01-23T04:48:29.510Z,23.90
2019-01-23T04:51:18.015Z,27.30
2019-01-23T04:53:49.593Z,26.33
2019-01-23T04:56:20.325Z,24.73
2019-01-23T04:58:50.979Z,28.23
2019-01-23T05:01:21.918Z,29.77
2019-01-23T05:03:52.670Z,29.27
2019-01-23T05:06:23.388Z,26.30
2019-01-23T05:08:55.060Z,26.63
2019-01-23T05:11:25.761Z,24.40
2019-01-23T05:13:56.419Z,25.27
2019-01-23T05:16:27.049Z,25.00
2019-01-23T05:18:58.733Z,26.90
2019-01-23T05:21:29.377Z,25.40
2019-01-23T05:24:00.113Z,24.43
2019-01-23T05:26:30.821Z,22.37
2019-01-23T05:29:02.561Z,26.33
2019-01-23T05:31:33.265Z,26.67
2019-01-23T05:34:05.363Z,26.37
2019-01-23T05:36:36.091Z,27.50
2019-01-23T05:39:08.892Z,28.90
2019-01-23T05:41:41.254Z,25.70
2019-01-23T05:44:14.018Z,25.53
2019-01-23T05:46:44.637Z,23.60
2019-01-23T05:49:16.292Z,25.80
2019-01-23T05:51:48.553Z,26.47
2019-01-23T05:54:19.232Z,27.20
2019-01-23T05:56:49.978Z,26.90
2019-01-23T05:59:20.866Z,24.87
2019-01-23T06:01:51.589Z,25.33
2019-01-23T06:04:22.437Z,27.53
2019-01-23T06:06:53.159Z,25.87
2019-01-23T06:09:23.974Z,25.70
2019-01-23T06:11:54.646Z,28.57
2019-01-23T06:14:25.402Z,26.93
2019-01-23T06:16:56.067Z,28.30
2019-01-23T06:19:26.798Z,25.10
2019-01-23T06:21:57.558Z,25.07
2019-01-23T06:24:28.327Z,25.17
2019-01-23T06:26:59.036Z,26.90
2019-01-23T06:29:29.735Z,25.27
2019-01-23T06:32:00.483Z,23.03
2019-01-23T06:34:31.231Z,22.47
2019-01-23T06:37:01.934Z,27.37
2019-01-23T06:39:32.681Z,30.83
2019-01-23T06:42:03.413Z,30.50
2019-01-23T06:44:34.220Z,31.05
2019-01-23T06:47:04.937Z,29.00
2019-01-23T06:49:35.686Z,62.30
2019-01-23T06:52:06.447Z,43.90
2019-01-23T06:54:37.201Z,42.55
2019-01-23T06:57:07.881Z,34.20
2019-01-23T06:59:38.553Z,33.20
2019-01-23T07:02:11.160Z,33.10
2019-01-23T07:04:41.840Z,27.17
2019-01-23T07:07:12.892Z,28.60
2019-01-23T07:09:43.634Z,29.90
2019-01-23T07:12:14.360Z,36.80
2019-01-23T07:14:45.003Z,29.07
2019-01-23T07:17:15.732Z,34.10
2019-01-23T07:19:47.737Z,33.93
2019-01-23T07:22:18.468Z,29.80
2019-01-23T07:24:50.586Z,31.60
2019-01-23T07:27:21.254Z,26.80
2019-01-23T07:29:51.921Z,27.93
2019-01-23T07:32:22.681Z,29.10
2019-01-23T07:34:53.425Z,28.98
2019-01-23T07:37:25.376Z,30.10
2019-01-23T07:39:56.109Z,26.30
2019-01-23T07:42:27.847Z,28.43
2019-01-23T07:44:58.577Z,31.52
2019-01-23T07:47:29.310Z,32.63
2019-01-23T07:49:59.972Z,30.80
2019-01-23T07:52:30.701Z,28.90
2019-01-23T07:55:01.357Z,33.10
2019-01-23T07:57:34.107Z,32.50
2019-01-23T08:00:06.327Z,31.60
2019-01-23T08:02:36.990Z,35.30
2019-01-23T08:05:08.925Z,33.23
2019-01-23T08:07:39.654Z,32.70
2019-01-23T08:10:12.713Z,38.80
2019-01-23T08:12:44.857Z,41.33
2019-01-23T08:15:21.453Z,33.77
2019-01-23T08:17:52.363Z,34.37
2019-01-23T08:20:23.531Z,32.27
2019-01-23T08:22:54.468Z,31.57
2019-01-23T08:25:26.290Z,32.03
2019-01-23T08:27:57.104Z,31.93
2019-01-23T08:30:28.169Z,33.77
2019-01-23T08:32:58.950Z,29.80
2019-01-23T08:35:29.784Z,33.10
2019-01-23T08:38:00.606Z,32.07
2019-01-23T08:40:31.294Z,32.93
2019-01-23T08:43:02.129Z,37.03
2019-01-23T08:45:32.960Z,33.70
2019-01-23T08:48:03.768Z,31.70
2019-01-23T08:50:45.036Z,33.20
2019-01-23T08:53:15.764Z,35.30
2019-01-23T08:55:53.230Z,37.53
2019-01-23T08:58:18.982Z,38.97
2019-01-23T09:00:49.708Z,39.40
2019-01-23T09:03:20.466Z,37.30
2019-01-23T09:05:51.267Z,39.00
2019-01-23T09:08:22.027Z,42.50
2019-01-23T09:10:52.787Z,44.20
2019-01-23T09:13:23.586Z,36.67
2019-01-23T09:15:54.317Z,34.80
2019-01-23T09:18:25.068Z,40.93
2019-01-23T09:20:55.693Z,37.60
2019-01-23T09:23:26.329Z,33.40
2019-01-23T09:25:57.037Z,35.70
2019-01-23T09:28:27.630Z,36.10
2019-01-23T09:31:48.392Z,34.97
2019-01-23T09:34:45.033Z,32.33
2019-01-23T09:37:51.079Z,34.07
2019-01-23T09:40:33.521Z,32.60
2019-01-23T09:43:42.403Z,33.30
2019-01-23T09:46:25.321Z,33.23
2019-01-23T09:49:48.719Z,35.73
2019-01-23T09:53:03.122Z,31.70
2019-01-23T09:55:33.825Z,33.73
2019-01-23T09:58:07.509Z,35.27
2019-01-23T10:00:38.105Z,30.57
2019-01-23T10:03:08.661Z,28.50
2019-01-23T10:05:39.287Z,27.10
2019-01-23T10:08:09.976Z,30.57
2019-01-23T10:10:40.511Z,30.30
2019-01-23T10:13:11.230Z,31.03
2019-01-23T10:15:53.974Z,31.73
2019-01-23T10:18:24.631Z,30.83
2019-01-23T10:20:55.333Z,30.00
2019-01-23T10:23:25.977Z,30.80
2019-01-23T10:25:56.665Z,29.00
2019-01-23T10:28:27.240Z,30.23
2019-01-23T10:30:58.835Z,29.53
2019-01-23T10:33:29.571Z,29.17
2019-01-23T10:36:00.173Z,28.90
2019-01-23T10:38:30.826Z,29.70
2019-01-23T10:41:01.532Z,30.30
2019-01-23T10:43:32.187Z,27.93
2019-01-23T10:46:02.997Z,28.90
2019-01-23T10:48:37.999Z,30.30
2019-01-23T10:51:05.965Z,31.80
2019-01-23T10:53:36.606Z,28.93
2019-01-23T10:56:07.297Z,29.37
2019-01-23T10:58:37.922Z,31.10
2019-01-23T11:01:13.363Z,29.57
2019-01-23T11:03:40.978Z,30.00
2019-01-23T11:06:11.702Z,30.17
2019-01-23T11:08:42.432Z,29.77
2019-01-23T11:11:12.981Z,30.10
2019-01-23T11:13:44.030Z,27.87
2019-01-23T11:16:15.689Z,28.60
2019-01-23T11:18:46.295Z,29.07
2019-01-23T11:21:17.731Z,29.73
2019-01-23T11:23:48.519Z,30.50
2019-01-23T11:26:19.232Z,31.77
2019-01-23T11:28:49.969Z,26.90
2019-01-23T11:31:20.708Z,29.30
2019-01-23T11:33:51.409Z,27.37
2019-01-23T11:36:22.060Z,28.90
2019-01-23T11:38:52.861Z,30.77
2019-01-23T11:41:23.424Z,28.93
2019-01-23T11:43:54.044Z,29.57
2019-01-23T11:46:24.784Z,26.87
2019-01-23T11:48:55.417Z,31.20
2019-01-23T11:51:26.065Z,28.10
2019-01-23T11:53:56.700Z,29.83
2019-01-23T11:56:27.278Z,30.10
2019-01-23T11:58:57.898Z,30.27
2019-01-23T12:01:28.634Z,27.13
2019-01-23T12:03:59.375Z,28.33
2019-01-23T12:06:30.110Z,29.70
2019-01-23T12:09:00.825Z,28.70
2019-01-23T12:11:31.538Z,30.97
2019-01-23T12:14:02.166Z,30.30
2019-01-23T12:16:32.890Z,29.40
2019-01-23T12:19:03.585Z,27.33
2019-01-23T12:21:34.304Z,29.53
2019-01-23T12:24:04.932Z,27.00
2019-01-23T12:26:35.577Z,28.27
2019-01-23T12:29:07.089Z,30.87
2019-01-23T12:31:37.805Z,28.80
2019-01-23T12:34:08.357Z,29.97
2019-01-23T12:36:39.012Z,28.23
2019-01-23T12:39:09.749Z,29.03
2019-01-23T12:41:40.473Z,30.27
2019-01-23T12:44:11.392Z,28.60
2019-01-23T12:46:42.080Z,27.83
2019-01-23T12:49:12.712Z,28.40
2019-01-23T12:51:43.322Z,29.00
2019-01-23T12:54:13.960Z,24.50
2019-01-23T12:56:44.690Z,27.00
2019-01-23T12:59:15.389Z,28.40
2019-01-23T13:01:47.025Z,29.70
2019-01-23T13:04:17.919Z,28.43
2019-01-23T13:06:48.638Z,30.60
2019-01-23T13:09:19.346Z,28.87
2019-01-23T13:11:50.114Z,29.13
2019-01-23T13:14:20.853Z,27.27
2019-01-23T13:16:52.085Z,27.03
2019-01-23T13:19:22.716Z,27.10
2019-01-23T13:21:53.440Z,24.07
2019-01-23T13:24:24.102Z,25.47
2019-01-23T13:26:54.941Z,26.73
2019-01-23T13:29:26.196Z,25.73
2019-01-23T13:31:57.056Z,27.37
2019-01-23T13:34:28.116Z,25.97
2019-01-23T13:36:58.756Z,29.17
2019-01-23T13:39:29.545Z,26.20
2019-01-23T13:42:00.816Z,27.60
2019-01-23T13:44:32.029Z,28.00
2019-01-23T13:47:04.015Z,27.93
2019-01-23T13:49:34.902Z,26.93
2019-01-23T13:52:06.162Z,27.10
2019-01-23T13:54:37.105Z,26.03
2019-01-23T13:57:08.600Z,27.47
2019-01-23T13:59:40.424Z,27.50
2019-01-23T14:02:13.079Z,28.27
2019-01-23T14:04:44.763Z,25.20
2019-01-23T14:07:16.470Z,25.47
2019-01-23T14:09:48.098Z,23.50
2019-01-23T14:12:19.690Z,24.00
2019-01-23T14:14:50.834Z,26.03
2019-01-23T14:17:22.157Z,26.00
2019-01-23T14:19:53.753Z,24.80
2019-01-23T14:22:26.252Z,23.10
2019-01-23T14:24:57.872Z,23.53
2019-01-23T14:27:28.952Z,26.17
2019-01-23T14:30:00.322Z,23.63
2019-01-23T14:32:31.771Z,22.80
2019-01-23T14:35:02.836Z,23.70
2019-01-23T14:37:34.329Z,24.33
2019-01-23T14:40:06.798Z,26.80
2019-01-23T14:42:39.037Z,22.67
2019-01-23T14:45:11.733Z,23.77
2019-01-23T14:47:43.117Z,25.30
2019-01-23T14:50:15.413Z,26.23
2019-01-23T14:52:47.622Z,26.23
2019-01-23T14:55:20.169Z,27.20
2019-01-23T14:57:52.161Z,27.93
2019-01-23T15:00:26.520Z,28.30
2019-01-23T15:02:58.784Z,26.90
2019-01-23T15:05:31.041Z,27.87
2019-01-23T15:08:02.912Z,27.37
2019-01-23T15:10:35.349Z,26.73
2019-01-23T15:13:08.083Z,28.53
2019-01-23T15:15:42.190Z,27.60
2019-01-23T15:18:14.729Z,26.20
2019-01-23T15:20:46.733Z,26.40
2019-01-23T15:23:19.015Z,27.97
2019-01-23T15:25:50.962Z,28.90
2019-01-23T15:28:23.956Z,28.30
2019-01-23T15:30:56.405Z,27.30
2019-01-23T15:33:28.725Z,26.70
2019-01-23T15:36:03.039Z,30.03
2019-01-23T15:38:37.001Z,26.67
2019-01-23T15:41:11.008Z,27.83
2019-01-23T15:43:44.473Z,30.00
2019-01-23T15:46:18.278Z,28.50
2019-01-23T15:48:53.006Z,26.20
2019-01-23T15:51:27.272Z,26.77
2019-01-23T15:54:00.569Z,28.80
2019-01-23T15:56:34.488Z,27.10
2019-01-23T15:59:08.937Z,27.80
2019-01-23T16:01:42.790Z,27.07
2019-01-23T16:06:59.649Z,29.43
2019-01-23T16:09:32.462Z,30.00
2019-01-23T16:12:06.083Z,32.23
2019-01-23T16:14:39.121Z,33.53
2019-01-23T16:17:12.342Z,30.37
2019-01-23T16:19:46.576Z,29.97
2019-01-23T16:22:19.407Z,32.90
2019-01-23T16:24:52.785Z,31.27
2019-01-23T16:27:27.564Z,30.60
2019-01-23T16:30:01.542Z,29.83
2019-01-23T16:32:35.992Z,28.53
2019-01-23T16:35:10.263Z,29.30
2019-01-23T16:37:45.620Z,30.30
2019-01-23T16:40:20.201Z,28.97
2019-01-23T16:42:53.609Z,30.00
2019-01-23T16:45:27.758Z,31.57
2019-01-23T16:48:01.682Z,31.13
2019-01-23T16:50:34.942Z,27.50
2019-01-23T16:53:09.589Z,28.13
2019-01-23T16:55:41.985Z,30.70
2019-01-23T16:58:15.724Z,28.50
2019-01-23T17:00:48.837Z,33.50
2019-01-23T17:03:22.564Z,35.00
2019-01-23T17:05:55.634Z,34.13
2019-01-23T17:08:29.821Z,34.43
2019-01-23T17:11:04.453Z,33.43
2019-01-23T17:13:38.567Z,34.57
2019-01-23T17:16:13.112Z,33.00
2019-01-23T17:18:47.019Z,33.30
2019-01-23T17:21:27.730Z,33.60
2019-01-23T17:24:11.380Z,33.37
2019-01-23T17:26:45.494Z,33.37
2019-01-23T17:29:19.209Z,36.13
2019-01-23T17:31:52.785Z,32.10
2019-01-23T17:34:26.865Z,34.73
2019-01-23T17:37:01.789Z,33.63
2019-01-23T17:39:35.669Z,33.90
2019-01-23T17:42:10.689Z,30.13
2019-01-23T17:44:45.401Z,30.60
2019-01-23T17:47:19.656Z,33.80
2019-01-23T17:49:53.333Z,34.80
2019-01-23T17:52:28.005Z,33.37
2019-01-23T17:55:00.238Z,35.50
2019-01-23T17:57:36.548Z,32.97
2019-01-23T18:00:15.338Z,33.87
2019-01-23T18:02:52.857Z,34.20
2019-01-23T18:05:26.713Z,33.53
2019-01-23T18:08:02.935Z,31.60
2019-01-23T18:10:38.258Z,34.67
2019-01-23T18:13:11.122Z,36.50
2019-01-23T18:15:46.438Z,33.93
2019-01-23T18:18:22.390Z,34.23
2019-01-23T18:20:58.060Z,34.60
2019-01-23T18:23:33.016Z,33.77
2019-01-23T18:26:07.754Z,32.60
2019-01-23T18:28:43.229Z,30.70
2019-01-23T18:31:37.902Z,32.33
2019-01-23T18:34:44.790Z,33.63
2019-01-23T18:37:29.786Z,32.97
2019-01-23T18:40:29.069Z,35.83
2019-01-23T18:43:47.590Z,36.03
2019-01-23T18:46:45.090Z,34.50
2019-01-23T18:49:59.077Z,33.10
2019-01-23T18:52:35.070Z,31.97
2019-01-23T18:55:12.667Z,32.53
2019-01-23T18:57:48.355Z,32.60
2019-01-23T19:00:24.998Z,30.67
2019-01-23T19:03:06.727Z,32.53
2019-01-23T19:05:37.462Z,32.87
2019-01-23T19:08:13.931Z,30.10
2019-01-23T19:10:49.783Z,31.43
2019-01-23T19:13:25.787Z,31.87
2019-01-23T19:16:01.998Z,32.90
2019-01-23T19:18:37.396Z,30.20
2019-01-23T19:21:12.887Z,30.43
2019-01-23T19:23:52.746Z,30.33
2019-01-23T19:26:28.665Z,30.73
2019-01-23T19:29:04.393Z,30.30
2019-01-23T19:31:40.140Z,33.77
2019-01-23T19:34:15.717Z,30.20
2019-01-23T19:36:52.536Z,34.57
2019-01-23T19:39:27.866Z,33.43
2019-01-23T19:42:04.012Z,31.80
2019-01-23T19:44:40.196Z,29.30
2019-01-23T19:47:15.567Z,29.47
2019-01-23T19:49:50.542Z,30.17
2019-01-23T19:52:26.404Z,34.53
2019-01-23T19:55:01.051Z,29.57
2019-01-23T19:57:38.390Z,33.17
2019-01-23T20:00:18.146Z,31.03
2019-01-23T20:02:53.325Z,31.13
2019-01-23T20:05:30.820Z,31.50
2019-01-23T20:08:06.652Z,30.50
2019-01-23T20:10:42.850Z,30.80
2019-01-23T20:13:18.329Z,29.77
2019-01-23T20:15:54.052Z,28.93
2019-01-23T20:18:30.037Z,29.97
2019-01-23T20:21:05.910Z,31.07
2019-01-23T20:23:41.378Z,30.83
2019-01-23T20:26:16.922Z,28.93
2019-01-23T20:28:53.054Z,32.13
2019-01-23T20:31:28.405Z,31.97
2019-01-23T20:34:03.647Z,30.73
2019-01-23T20:36:39.041Z,31.57
2019-01-23T20:39:15.237Z,32.40
2019-01-23T20:41:50.866Z,28.67
2019-01-23T20:44:26.085Z,30.20
2019-01-23T20:47:01.248Z,39.50
2019-01-23T20:49:36.465Z,38.17
2019-01-23T20:52:11.809Z,33.43
2019-01-23T20:54:46.589Z,32.57
2019-01-23T20:57:21.025Z,35.20
2019-01-23T20:59:55.785Z,29.47
2019-01-23T21:02:31.187Z,31.83
2019-01-23T21:05:07.936Z,31.90
2019-01-23T21:07:43.357Z,34.33
2019-01-23T21:10:20.250Z,29.90
2019-01-23T21:12:54.464Z,31.03
2019-01-23T21:15:30.888Z,33.27
2019-01-23T21:18:06.721Z,32.73
2019-01-23T21:20:42.851Z,34.73
2019-01-23T21:23:18.672Z,31.90
2019-01-23T21:25:53.452Z,33.53
2019-01-23T21:28:27.660Z,33.30
2019-01-23T21:31:01.945Z,29.93
2019-01-23T21:33:42.051Z,32.87
2019-01-23T21:36:12.931Z,33.77
2019-01-23T21:38:47.141Z,35.90
2019-01-23T21:41:21.862Z,32.70
2019-01-23T21:43:55.797Z,35.53
2019-01-23T21:46:29.633Z,35.70
2019-01-23T21:49:03.437Z,34.00
2019-01-23T21:51:36.745Z,34.73
2019-01-23T21:54:10.220Z,36.47
2019-01-23T21:56:43.589Z,38.03
2019-01-23T21:59:16.368Z,35.60
2019-01-23T22:01:49.429Z,35.30
2019-01-23T22:04:21.082Z,36.53
2019-01-23T22:06:52.767Z,34.20
2019-01-23T22:09:24.726Z,35.13
2019-01-23T22:12:00.653Z,36.00
2019-01-23T22:14:32.602Z,35.27
2019-01-23T22:17:04.366Z,36.20
2019-01-23T22:19:36.711Z,33.50
2019-01-23T22:22:09.157Z,36.30
2019-01-23T22:24:41.085Z,35.00
2019-01-23T22:27:12.581Z,37.87
2019-01-23T22:29:44.938Z,35.07
2019-01-23T22:32:17.156Z,37.43
2019-01-23T22:34:49.056Z,35.53
2019-01-23T22:37:21.022Z,36.00
2019-01-23T22:39:51.913Z,38.40
2019-01-23T22:42:22.682Z,38.43
2019-01-23T22:44:53.575Z,39.27
2019-01-23T22:47:25.141Z,37.07
2019-01-23T22:49:56.053Z,36.50
2019-01-23T22:52:26.821Z,38.37
2019-01-23T22:54:57.549Z,36.07
2019-01-23T22:57:28.285Z,33.83
2019-01-23T22:59:58.918Z,37.80
2019-01-23T23:02:29.650Z,35.47
2019-01-23T23:05:00.389Z,37.47
2019-01-23T23:07:32.081Z,39.27
2019-01-23T23:10:02.803Z,34.40
2019-01-23T23:12:33.533Z,35.80
2019-01-23T23:15:04.560Z,34.07
2019-01-23T23:17:35.221Z,34.97
2019-01-23T23:20:06.687Z,33.97
2019-01-23T23:22:37.437Z,36.40
2019-01-23T23:25:08.488Z,38.03
2019-01-23T23:27:39.445Z,34.87
2019-01-23T23:30:11.997Z,34.50
2019-01-23T23:32:42.830Z,34.47
2019-01-23T23:35:13.653Z,36.93
2019-01-23T23:37:44.301Z,36.30
2019-01-23T23:40:15.133Z,38.23
2019-01-23T23:42:45.780Z,39.57
2019-01-23T23:45:16.640Z,37.87
2019-01-23T23:47:47.479Z,37.20
2019-01-23T23:50:18.136Z,37.73
2019-01-23T23:52:48.895Z,36.77
2019-01-23T23:55:19.545Z,37.80
2019-01-23T23:57:50.281Z,41.20
